sensor_id;sensor_type;location;lat;lon;timestamp;P1;durP1;ratioP1;P2;durP2;ratioP2
16890;SDS011;8562;52.246;20.966;2023-06-22T00:01:53;21.60;;;17.03;;
16890;SDS011;8562;52.246;20.966;2023-06-22T00:04:18;19.40;;;16.30;;
16890;SDS011;8562;52.246;20.966;2023-06-22T00:06:44;20.43;;;17.50;;
16890;SDS011;8562;52.246;20.966;2023-06-22T00:09:09;21.43;;;17.43;;
16890;SDS011;8562;52.246;20.966;2023-06-22T00:11:35;19.47;;;16.47;;
16890;SDS011;8562;52.246;20.966;2023-06-22T00:14:01;21.17;;;16.77;;
16890;SDS011;8562;52.246;20.966;2023-06-22T00:16:26;20.47;;;17.23;;
16890;SDS011;8562;52.246;20.966;2023-06-22T00:18:51;22.63;;;17.53;;
16890;SDS011;8562;52.246;20.966;2023-06-22T00:21:17;23.13;;;17.33;;
16890;SDS011;8562;52.246;20.966;2023-06-22T00:23:44;20.40;;;16.57;;
16890;SDS011;8562;52.246;20.966;2023-06-22T00:26:09;25.47;;;19.77;;
16890;SDS011;8562;52.246;20.966;2023-06-22T00:28:36;22.63;;;17.17;;
16890;SDS011;8562;52.246;20.966;2023-06-22T00:31:01;19.97;;;17.73;;
16890;SDS011;8562;52.246;20.966;2023-06-22T00:33:26;23.60;;;19.23;;
16890;SDS011;8562;52.246;20.966;2023-06-22T00:35:53;20.30;;;18.10;;
16890;SDS011;8562;52.246;20.966;2023-06-22T00:38:19;22.57;;;18.40;;
16890;SDS011;8562;52.246;20.966;2023-06-22T00:40:44;21.67;;;18.90;;
16890;SDS011;8562;52.246;20.966;2023-06-22T00:43:09;22.33;;;16.77;;
16890;SDS011;8562;52.246;20.966;2023-06-22T00:45:35;25.90;;;18.03;;
16890;SDS011;8562;52.246;20.966;2023-06-22T00:48:00;22.53;;;18.00;;
16890;SDS011;8562;52.246;20.966;2023-06-22T00:50:27;23.00;;;17.50;;
16890;SDS011;8562;52.246;20.966;2023-06-22T00:52:53;20.67;;;17.53;;
16890;SDS011;8562;52.246;20.966;2023-06-22T00:55:21;20.60;;;18.27;;
16890;SDS011;8562;52.246;20.966;2023-06-22T00:57:47;22.93;;;17.83;;
16890;SDS011;8562;52.246;20.966;2023-06-22T01:00:13;21.47;;;17.90;;
16890;SDS011;8562;52.246;20.966;2023-06-22T01:02:41;20.87;;;16.90;;
16890;SDS011;8562;52.246;20.966;2023-06-22T01:05:06;21.70;;;17.53;;
16890;SDS011;8562;52.246;20.966;2023-06-22T01:07:34;20.70;;;17.23;;
16890;SDS011;8562;52.246;20.966;2023-06-22T01:10:18;22.83;;;17.70;;
16890;SDS011;8562;52.246;20.966;2023-06-22T01:12:48;25.10;;;17.27;;
16890;SDS011;8562;52.246;20.966;2023-06-22T01:15:17;18.23;;;15.93;;
16890;SDS011;8562;52.246;20.966;2023-06-22T01:17:45;20.53;;;16.70;;
16890;SDS011;8562;52.246;20.966;2023-06-22T01:20:10;22.77;;;16.90;;
16890;SDS011;8562;52.246;20.966;2023-06-22T01:22:46;20.77;;;16.73;;
16890;SDS011;8562;52.246;20.966;2023-06-22T01:25:21;18.40;;;16.43;;
16890;SDS011;8562;52.246;20.966;2023-06-22T01:27:53;22.13;;;18.40;;
16890;SDS011;8562;52.246;20.966;2023-06-22T01:30:21;23.57;;;17.77;;
16890;SDS011;8562;52.246;20.966;2023-06-22T01:32:49;23.03;;;16.83;;
16890;SDS011;8562;52.246;20.966;2023-06-22T01:35:16;20.27;;;16.40;;
16890;SDS011;8562;52.246;20.966;2023-06-22T01:37:42;22.27;;;16.93;;
16890;SDS011;8562;52.246;20.966;2023-06-22T01:40:07;22.00;;;15.93;;
16890;SDS011;8562;52.246;20.966;2023-06-22T01:42:33;18.93;;;15.40;;
16890;SDS011;8562;52.246;20.966;2023-06-22T01:44:59;22.00;;;16.50;;
16890;SDS011;8562;52.246;20.966;2023-06-22T01:47:24;20.97;;;16.43;;
16890;SDS011;8562;52.246;20.966;2023-06-22T01:49:50;19.87;;;16.63;;
16890;SDS011;8562;52.246;20.966;2023-06-22T01:52:19;18.57;;;16.43;;
16890;SDS011;8562;52.246;20.966;2023-06-22T01:54:46;23.50;;;17.30;;
16890;SDS011;8562;52.246;20.966;2023-06-22T01:57:11;21.17;;;17.17;;
16890;SDS011;8562;52.246;20.966;2023-06-22T01:59:39;21.17;;;17.37;;
16890;SDS011;8562;52.246;20.966;2023-06-22T02:02:09;25.23;;;19.50;;
16890;SDS011;8562;52.246;20.966;2023-06-22T02:04:38;21.50;;;18.63;;
16890;SDS011;8562;52.246;20.966;2023-06-22T02:07:12;22.53;;;17.33;;
16890;SDS011;8562;52.246;20.966;2023-06-22T02:09:37;21.83;;;17.57;;
16890;SDS011;8562;52.246;20.966;2023-06-22T02:12:03;23.30;;;17.93;;
16890;SDS011;8562;52.246;20.966;2023-06-22T02:14:30;25.63;;;18.90;;
16890;SDS011;8562;52.246;20.966;2023-06-22T02:16:55;25.73;;;20.50;;
16890;SDS011;8562;52.246;20.966;2023-06-22T02:19:24;26.37;;;20.43;;
16890;SDS011;8562;52.246;20.966;2023-06-22T02:21:50;24.40;;;20.10;;
16890;SDS011;8562;52.246;20.966;2023-06-22T02:24:15;26.17;;;21.67;;
16890;SDS011;8562;52.246;20.966;2023-06-22T02:26:40;24.23;;;20.40;;
16890;SDS011;8562;52.246;20.966;2023-06-22T02:29:07;30.30;;;22.63;;
16890;SDS011;8562;52.246;20.966;2023-06-22T02:31:33;28.73;;;22.03;;
16890;SDS011;8562;52.246;20.966;2023-06-22T02:33:58;29.30;;;23.47;;
16890;SDS011;8562;52.246;20.966;2023-06-22T02:36:24;30.33;;;24.00;;
16890;SDS011;8562;52.246;20.966;2023-06-22T02:38:51;30.53;;;25.40;;
16890;SDS011;8562;52.246;20.966;2023-06-22T02:41:17;33.93;;;26.40;;
16890;SDS011;8562;52.246;20.966;2023-06-22T02:43:46;36.83;;;25.33;;
16890;SDS011;8562;52.246;20.966;2023-06-22T02:46:12;32.30;;;26.57;;
16890;SDS011;8562;52.246;20.966;2023-06-22T02:48:39;33.73;;;24.93;;
16890;SDS011;8562;52.246;20.966;2023-06-22T02:51:04;37.90;;;25.70;;
16890;SDS011;8562;52.246;20.966;2023-06-22T02:53:29;35.03;;;25.77;;
16890;SDS011;8562;52.246;20.966;2023-06-22T02:55:55;38.70;;;27.43;;
16890;SDS011;8562;52.246;20.966;2023-06-22T02:58:20;38.27;;;27.47;;
16890;SDS011;8562;52.246;20.966;2023-06-22T03:00:46;32.33;;;25.13;;
16890;SDS011;8562;52.246;20.966;2023-06-22T03:03:12;34.77;;;24.70;;
16890;SDS011;8562;52.246;20.966;2023-06-22T03:05:37;33.70;;;26.00;;
16890;SDS011;8562;52.246;20.966;2023-06-22T03:08:03;34.47;;;25.80;;
16890;SDS011;8562;52.246;20.966;2023-06-22T03:10:31;37.17;;;26.00;;
16890;SDS011;8562;52.246;20.966;2023-06-22T03:12:57;36.80;;;26.20;;
16890;SDS011;8562;52.246;20.966;2023-06-22T03:15:22;36.30;;;27.40;;
16890;SDS011;8562;52.246;20.966;2023-06-22T03:17:47;34.67;;;26.70;;
16890;SDS011;8562;52.246;20.966;2023-06-22T03:20:13;35.07;;;25.47;;
16890;SDS011;8562;52.246;20.966;2023-06-22T03:22:40;35.37;;;25.67;;
16890;SDS011;8562;52.246;20.966;2023-06-22T03:25:06;33.33;;;25.23;;
16890;SDS011;8562;52.246;20.966;2023-06-22T03:27:38;38.97;;;26.03;;
16890;SDS011;8562;52.246;20.966;2023-06-22T03:30:06;38.33;;;25.70;;
16890;SDS011;8562;52.246;20.966;2023-06-22T03:32:32;33.33;;;24.43;;
16890;SDS011;8562;52.246;20.966;2023-06-22T03:34:57;32.40;;;24.00;;
16890;SDS011;8562;52.246;20.966;2023-06-22T03:37:24;35.10;;;26.40;;
16890;SDS011;8562;52.246;20.966;2023-06-22T03:39:50;39.80;;;27.40;;
16890;SDS011;8562;52.246;20.966;2023-06-22T03:42:16;38.90;;;26.73;;
16890;SDS011;8562;52.246;20.966;2023-06-22T03:44:41;35.60;;;25.43;;
16890;SDS011;8562;52.246;20.966;2023-06-22T03:47:06;32.13;;;24.67;;
16890;SDS011;8562;52.246;20.966;2023-06-22T03:49:32;34.57;;;25.40;;
16890;SDS011;8562;52.246;20.966;2023-06-22T03:51:58;32.53;;;24.57;;
16890;SDS011;8562;52.246;20.966;2023-06-22T03:54:23;32.97;;;24.33;;
16890;SDS011;8562;52.246;20.966;2023-06-22T03:56:48;31.20;;;23.47;;
16890;SDS011;8562;52.246;20.966;2023-06-22T03:59:13;35.33;;;23.37;;
16890;SDS011;8562;52.246;20.966;2023-06-22T04:01:39;34.63;;;24.53;;
16890;SDS011;8562;52.246;20.966;2023-06-22T04:04:05;34.43;;;23.90;;
16890;SDS011;8562;52.246;20.966;2023-06-22T04:06:30;35.50;;;25.43;;
16890;SDS011;8562;52.246;20.966;2023-06-22T04:08:55;37.17;;;25.43;;
16890;SDS011;8562;52.246;20.966;2023-06-22T04:11:21;31.67;;;24.53;;
16890;SDS011;8562;52.246;20.966;2023-06-22T04:13:46;29.87;;;23.07;;
16890;SDS011;8562;52.246;20.966;2023-06-22T04:16:13;31.03;;;23.13;;
16890;SDS011;8562;52.246;20.966;2023-06-22T04:18:39;29.53;;;22.40;;
16890;SDS011;8562;52.246;20.966;2023-06-22T04:21:04;30.03;;;21.00;;
16890;SDS011;8562;52.246;20.966;2023-06-22T04:23:29;32.53;;;23.43;;
16890;SDS011;8562;52.246;20.966;2023-06-22T04:25:55;31.27;;;24.03;;
16890;SDS011;8562;52.246;20.966;2023-06-22T04:28:21;27.83;;;20.07;;
16890;SDS011;8562;52.246;20.966;2023-06-22T04:30:47;29.00;;;20.53;;
16890;SDS011;8562;52.246;20.966;2023-06-22T04:33:15;26.93;;;20.20;;
16890;SDS011;8562;52.246;20.966;2023-06-22T04:35:40;27.67;;;21.23;;
16890;SDS011;8562;52.246;20.966;2023-06-22T04:38:09;27.43;;;20.47;;
16890;SDS011;8562;52.246;20.966;2023-06-22T04:40:35;26.90;;;20.03;;
16890;SDS011;8562;52.246;20.966;2023-06-22T04:43:00;26.47;;;20.27;;
16890;SDS011;8562;52.246;20.966;2023-06-22T04:45:28;25.57;;;19.27;;
16890;SDS011;8562;52.246;20.966;2023-06-22T04:47:54;24.03;;;18.83;;
16890;SDS011;8562;52.246;20.966;2023-06-22T04:50:19;28.23;;;20.20;;
16890;SDS011;8562;52.246;20.966;2023-06-22T04:52:46;29.20;;;20.73;;
16890;SDS011;8562;52.246;20.966;2023-06-22T04:55:11;26.60;;;19.07;;
16890;SDS011;8562;52.246;20.966;2023-06-22T04:57:37;25.50;;;19.13;;
16890;SDS011;8562;52.246;20.966;2023-06-22T05:00:04;23.90;;;17.97;;
16890;SDS011;8562;52.246;20.966;2023-06-22T05:02:42;27.10;;;19.53;;
16890;SDS011;8562;52.246;20.966;2023-06-22T05:05:07;23.80;;;18.43;;
16890;SDS011;8562;52.246;20.966;2023-06-22T05:07:33;24.67;;;18.80;;
16890;SDS011;8562;52.246;20.966;2023-06-22T05:09:59;25.53;;;18.53;;
16890;SDS011;8562;52.246;20.966;2023-06-22T05:12:24;28.67;;;19.27;;
16890;SDS011;8562;52.246;20.966;2023-06-22T05:14:49;23.37;;;17.40;;
16890;SDS011;8562;52.246;20.966;2023-06-22T05:17:15;24.07;;;19.23;;
16890;SDS011;8562;52.246;20.966;2023-06-22T05:19:44;27.17;;;18.87;;
16890;SDS011;8562;52.246;20.966;2023-06-22T05:22:13;27.33;;;18.07;;
16890;SDS011;8562;52.246;20.966;2023-06-22T05:24:38;24.87;;;18.63;;
16890;SDS011;8562;52.246;20.966;2023-06-22T05:27:04;22.80;;;17.87;;
16890;SDS011;8562;52.246;20.966;2023-06-22T05:29:29;25.20;;;18.37;;
16890;SDS011;8562;52.246;20.966;2023-06-22T05:31:54;22.53;;;18.13;;
16890;SDS011;8562;52.246;20.966;2023-06-22T05:34:20;23.67;;;18.13;;
16890;SDS011;8562;52.246;20.966;2023-06-22T05:36:45;21.60;;;16.40;;
16890;SDS011;8562;52.246;20.966;2023-06-22T05:39:11;25.40;;;18.30;;
16890;SDS011;8562;52.246;20.966;2023-06-22T05:41:37;23.77;;;18.57;;
16890;SDS011;8562;52.246;20.966;2023-06-22T05:44:03;22.43;;;17.13;;
16890;SDS011;8562;52.246;20.966;2023-06-22T05:46:28;21.70;;;18.03;;
16890;SDS011;8562;52.246;20.966;2023-06-22T05:48:53;22.77;;;17.33;;
16890;SDS011;8562;52.246;20.966;2023-06-22T05:51:19;22.27;;;16.63;;
16890;SDS011;8562;52.246;20.966;2023-06-22T05:53:44;22.63;;;16.70;;
16890;SDS011;8562;52.246;20.966;2023-06-22T05:56:11;23.07;;;16.70;;
16890;SDS011;8562;52.246;20.966;2023-06-22T05:58:37;19.20;;;16.43;;
16890;SDS011;8562;52.246;20.966;2023-06-22T06:01:02;23.43;;;16.10;;
16890;SDS011;8562;52.246;20.966;2023-06-22T06:03:27;16.67;;;14.30;;
16890;SDS011;8562;52.246;20.966;2023-06-22T06:05:53;20.83;;;15.47;;
16890;SDS011;8562;52.246;20.966;2023-06-22T06:08:19;19.87;;;15.07;;
16890;SDS011;8562;52.246;20.966;2023-06-22T06:10:44;20.00;;;14.77;;
16890;SDS011;8562;52.246;20.966;2023-06-22T06:13:09;24.03;;;17.63;;
16890;SDS011;8562;52.246;20.966;2023-06-22T06:15:35;21.03;;;14.73;;
16890;SDS011;8562;52.246;20.966;2023-06-22T06:18:00;18.53;;;14.93;;
16890;SDS011;8562;52.246;20.966;2023-06-22T06:20:27;20.20;;;14.83;;
16890;SDS011;8562;52.246;20.966;2023-06-22T06:22:55;20.17;;;15.30;;
16890;SDS011;8562;52.246;20.966;2023-06-22T06:25:21;16.33;;;14.03;;
16890;SDS011;8562;52.246;20.966;2023-06-22T06:27:47;17.10;;;13.23;;
16890;SDS011;8562;52.246;20.966;2023-06-22T06:30:13;18.87;;;14.07;;
16890;SDS011;8562;52.246;20.966;2023-06-22T06:32:39;16.77;;;14.00;;
16890;SDS011;8562;52.246;20.966;2023-06-22T06:35:08;19.33;;;13.63;;
16890;SDS011;8562;52.246;20.966;2023-06-22T06:37:36;16.13;;;13.00;;
16890;SDS011;8562;52.246;20.966;2023-06-22T06:40:03;22.00;;;15.10;;
16890;SDS011;8562;52.246;20.966;2023-06-22T06:42:30;19.47;;;13.83;;
16890;SDS011;8562;52.246;20.966;2023-06-22T06:44:56;16.57;;;14.17;;
16890;SDS011;8562;52.246;20.966;2023-06-22T06:47:21;16.43;;;13.23;;
16890;SDS011;8562;52.246;20.966;2023-06-22T06:49:47;14.40;;;11.57;;
16890;SDS011;8562;52.246;20.966;2023-06-22T06:52:12;16.57;;;12.43;;
16890;SDS011;8562;52.246;20.966;2023-06-22T06:54:37;13.57;;;11.00;;
16890;SDS011;8562;52.246;20.966;2023-06-22T06:57:03;13.00;;;11.10;;
16890;SDS011;8562;52.246;20.966;2023-06-22T06:59:28;18.10;;;12.73;;
16890;SDS011;8562;52.246;20.966;2023-06-22T07:01:55;15.47;;;11.87;;
16890;SDS011;8562;52.246;20.966;2023-06-22T07:04:21;13.10;;;10.30;;
16890;SDS011;8562;52.246;20.966;2023-06-22T07:06:46;13.00;;;10.40;;
16890;SDS011;8562;52.246;20.966;2023-06-22T07:09:11;12.30;;;10.33;;
16890;SDS011;8562;52.246;20.966;2023-06-22T07:11:37;12.33;;;10.00;;
16890;SDS011;8562;52.246;20.966;2023-06-22T07:14:02;12.00;;;9.53;;
16890;SDS011;8562;52.246;20.966;2023-06-22T07:16:27;12.50;;;10.37;;
16890;SDS011;8562;52.246;20.966;2023-06-22T07:18:54;12.30;;;9.80;;
16890;SDS011;8562;52.246;20.966;2023-06-22T07:21:19;11.73;;;8.83;;
16890;SDS011;8562;52.246;20.966;2023-06-22T07:23:44;14.03;;;9.37;;
16890;SDS011;8562;52.246;20.966;2023-06-22T07:26:10;10.20;;;8.67;;
16890;SDS011;8562;52.246;20.966;2023-06-22T07:28:37;9.90;;;7.50;;
16890;SDS011;8562;52.246;20.966;2023-06-22T07:31:03;8.77;;;7.40;;
16890;SDS011;8562;52.246;20.966;2023-06-22T07:33:29;9.20;;;8.00;;
16890;SDS011;8562;52.246;20.966;2023-06-22T07:35:55;8.70;;;7.23;;
16890;SDS011;8562;52.246;20.966;2023-06-22T07:38:20;9.07;;;7.13;;
16890;SDS011;8562;52.246;20.966;2023-06-22T07:40:45;10.90;;;6.37;;
16890;SDS011;8562;52.246;20.966;2023-06-22T07:43:10;7.63;;;5.20;;
16890;SDS011;8562;52.246;20.966;2023-06-22T07:45:37;8.03;;;6.23;;
16890;SDS011;8562;52.246;20.966;2023-06-22T07:48:03;5.80;;;5.20;;
16890;SDS011;8562;52.246;20.966;2023-06-22T07:50:28;7.33;;;5.27;;
16890;SDS011;8562;52.246;20.966;2023-06-22T07:52:53;6.33;;;5.10;;
16890;SDS011;8562;52.246;20.966;2023-06-22T07:55:19;6.90;;;4.90;;
16890;SDS011;8562;52.246;20.966;2023-06-22T07:57:46;6.53;;;4.80;;
16890;SDS011;8562;52.246;20.966;2023-06-22T08:00:12;5.17;;;4.03;;
16890;SDS011;8562;52.246;20.966;2023-06-22T08:02:42;5.23;;;4.10;;
16890;SDS011;8562;52.246;20.966;2023-06-22T08:05:08;5.07;;;4.43;;
16890;SDS011;8562;52.246;20.966;2023-06-22T08:07:34;5.47;;;3.73;;
16890;SDS011;8562;52.246;20.966;2023-06-22T08:10:00;6.13;;;4.47;;
16890;SDS011;8562;52.246;20.966;2023-06-22T08:12:25;8.03;;;4.87;;
16890;SDS011;8562;52.246;20.966;2023-06-22T08:14:51;7.97;;;5.53;;
16890;SDS011;8562;52.246;20.966;2023-06-22T08:17:16;5.20;;;3.83;;
16890;SDS011;8562;52.246;20.966;2023-06-22T08:19:41;5.73;;;4.23;;
16890;SDS011;8562;52.246;20.966;2023-06-22T08:22:07;4.37;;;3.97;;
16890;SDS011;8562;52.246;20.966;2023-06-22T08:24:32;5.37;;;3.40;;
16890;SDS011;8562;52.246;20.966;2023-06-22T08:26:57;5.50;;;3.37;;
16890;SDS011;8562;52.246;20.966;2023-06-22T08:29:23;3.97;;;3.37;;
16890;SDS011;8562;52.246;20.966;2023-06-22T08:31:48;3.73;;;3.30;;
16890;SDS011;8562;52.246;20.966;2023-06-22T08:34:13;5.20;;;3.30;;
16890;SDS011;8562;52.246;20.966;2023-06-22T08:36:38;4.97;;;3.53;;
16890;SDS011;8562;52.246;20.966;2023-06-22T08:39:06;5.77;;;4.03;;
16890;SDS011;8562;52.246;20.966;2023-06-22T08:41:32;4.20;;;3.43;;
16890;SDS011;8562;52.246;20.966;2023-06-22T08:43:57;5.23;;;3.50;;
16890;SDS011;8562;52.246;20.966;2023-06-22T08:46:22;4.70;;;3.40;;
16890;SDS011;8562;52.246;20.966;2023-06-22T08:48:55;4.83;;;3.40;;
16890;SDS011;8562;52.246;20.966;2023-06-22T08:51:20;3.83;;;3.13;;
16890;SDS011;8562;52.246;20.966;2023-06-22T08:53:46;6.17;;;3.67;;
16890;SDS011;8562;52.246;20.966;2023-06-22T08:56:11;3.47;;;3.17;;
16890;SDS011;8562;52.246;20.966;2023-06-22T08:58:36;2.97;;;2.70;;
16890;SDS011;8562;52.246;20.966;2023-06-22T09:01:02;3.10;;;2.80;;
16890;SDS011;8562;52.246;20.966;2023-06-22T09:03:27;3.73;;;3.00;;
16890;SDS011;8562;52.246;20.966;2023-06-22T09:05:52;3.70;;;2.80;;
16890;SDS011;8562;52.246;20.966;2023-06-22T09:08:18;5.17;;;2.80;;
16890;SDS011;8562;52.246;20.966;2023-06-22T09:10:43;3.13;;;2.83;;
16890;SDS011;8562;52.246;20.966;2023-06-22T09:13:08;3.60;;;3.07;;
16890;SDS011;8562;52.246;20.966;2023-06-22T09:15:33;4.03;;;2.93;;
16890;SDS011;8562;52.246;20.966;2023-06-22T09:17:59;4.27;;;3.30;;
16890;SDS011;8562;52.246;20.966;2023-06-22T09:20:25;3.23;;;2.93;;
16890;SDS011;8562;52.246;20.966;2023-06-22T09:22:50;3.63;;;2.80;;
16890;SDS011;8562;52.246;20.966;2023-06-22T09:25:15;3.37;;;3.00;;
16890;SDS011;8562;52.246;20.966;2023-06-22T09:27:41;3.83;;;2.80;;
16890;SDS011;8562;52.246;20.966;2023-06-22T09:30:06;2.47;;;2.17;;
16890;SDS011;8562;52.246;20.966;2023-06-22T09:32:32;3.10;;;2.80;;
16890;SDS011;8562;52.246;20.966;2023-06-22T09:34:57;2.53;;;2.33;;
16890;SDS011;8562;52.246;20.966;2023-06-22T09:37:22;4.37;;;2.37;;
16890;SDS011;8562;52.246;20.966;2023-06-22T09:39:48;5.80;;;3.13;;
16890;SDS011;8562;52.246;20.966;2023-06-22T09:42:13;2.57;;;2.37;;
16890;SDS011;8562;52.246;20.966;2023-06-22T09:44:38;3.67;;;2.00;;
16890;SDS011;8562;52.246;20.966;2023-06-22T09:47:04;2.63;;;2.10;;
16890;SDS011;8562;52.246;20.966;2023-06-22T09:49:29;3.63;;;2.10;;
16890;SDS011;8562;52.246;20.966;2023-06-22T09:51:54;2.27;;;2.07;;
16890;SDS011;8562;52.246;20.966;2023-06-22T09:54:20;2.97;;;2.10;;
16890;SDS011;8562;52.246;20.966;2023-06-22T09:56:45;2.60;;;2.20;;
16890;SDS011;8562;52.246;20.966;2023-06-22T09:59:10;3.53;;;2.90;;
16890;SDS011;8562;52.246;20.966;2023-06-22T10:01:36;2.90;;;2.60;;
16890;SDS011;8562;52.246;20.966;2023-06-22T10:04:02;3.03;;;2.40;;
16890;SDS011;8562;52.246;20.966;2023-06-22T10:06:27;4.57;;;2.60;;
16890;SDS011;8562;52.246;20.966;2023-06-22T10:08:52;3.60;;;2.60;;
16890;SDS011;8562;52.246;20.966;2023-06-22T10:11:18;4.27;;;2.83;;
16890;SDS011;8562;52.246;20.966;2023-06-22T10:13:44;4.27;;;2.90;;
16890;SDS011;8562;52.246;20.966;2023-06-22T10:16:10;2.70;;;2.43;;
16890;SDS011;8562;52.246;20.966;2023-06-22T10:18:36;2.83;;;2.63;;
16890;SDS011;8562;52.246;20.966;2023-06-22T10:21:01;2.43;;;2.10;;
16890;SDS011;8562;52.246;20.966;2023-06-22T10:23:26;3.70;;;2.83;;
16890;SDS011;8562;52.246;20.966;2023-06-22T10:25:52;2.70;;;2.50;;
16890;SDS011;8562;52.246;20.966;2023-06-22T10:28:17;9.17;;;3.27;;
16890;SDS011;8562;52.246;20.966;2023-06-22T10:30:42;4.10;;;2.37;;
16890;SDS011;8562;52.246;20.966;2023-06-22T10:33:11;2.60;;;2.30;;
16890;SDS011;8562;52.246;20.966;2023-06-22T10:35:37;3.73;;;2.57;;
16890;SDS011;8562;52.246;20.966;2023-06-22T10:38:05;2.87;;;2.57;;
16890;SDS011;8562;52.246;20.966;2023-06-22T10:40:31;5.13;;;2.50;;
16890;SDS011;8562;52.246;20.966;2023-06-22T10:42:56;6.13;;;3.00;;
16890;SDS011;8562;52.246;20.966;2023-06-22T10:45:21;3.17;;;2.50;;
16890;SDS011;8562;52.246;20.966;2023-06-22T10:47:47;4.03;;;2.50;;
16890;SDS011;8562;52.246;20.966;2023-06-22T10:50:12;7.70;;;3.13;;
16890;SDS011;8562;52.246;20.966;2023-06-22T10:52:38;4.00;;;2.50;;
16890;SDS011;8562;52.246;20.966;2023-06-22T10:55:03;3.80;;;3.17;;
16890;SDS011;8562;52.246;20.966;2023-06-22T10:57:29;5.07;;;2.87;;
16890;SDS011;8562;52.246;20.966;2023-06-22T10:59:54;3.57;;;3.00;;
16890;SDS011;8562;52.246;20.966;2023-06-22T11:02:19;4.20;;;2.97;;
16890;SDS011;8562;52.246;20.966;2023-06-22T11:04:44;3.20;;;2.90;;
16890;SDS011;8562;52.246;20.966;2023-06-22T11:07:11;3.40;;;3.10;;
16890;SDS011;8562;52.246;20.966;2023-06-22T11:09:36;3.47;;;3.17;;
16890;SDS011;8562;52.246;20.966;2023-06-22T11:12:03;3.40;;;3.10;;
16890;SDS011;8562;52.246;20.966;2023-06-22T11:14:29;6.13;;;3.20;;
16890;SDS011;8562;52.246;20.966;2023-06-22T11:16:54;3.73;;;3.00;;
16890;SDS011;8562;52.246;20.966;2023-06-22T11:19:19;6.60;;;3.33;;
16890;SDS011;8562;52.246;20.966;2023-06-22T11:21:45;4.47;;;3.37;;
16890;SDS011;8562;52.246;20.966;2023-06-22T11:24:10;4.13;;;3.13;;
16890;SDS011;8562;52.246;20.966;2023-06-22T11:26:35;4.10;;;3.70;;
16890;SDS011;8562;52.246;20.966;2023-06-22T11:29:02;3.47;;;2.93;;
16890;SDS011;8562;52.246;20.966;2023-06-22T11:31:30;3.97;;;3.30;;
16890;SDS011;8562;52.246;20.966;2023-06-22T11:33:55;3.33;;;2.67;;
16890;SDS011;8562;52.246;20.966;2023-06-22T11:36:20;3.00;;;2.73;;
16890;SDS011;8562;52.246;20.966;2023-06-22T11:38:46;4.67;;;3.37;;
16890;SDS011;8562;52.246;20.966;2023-06-22T11:41:11;4.33;;;3.20;;
16890;SDS011;8562;52.246;20.966;2023-06-22T11:43:37;5.60;;;3.20;;
16890;SDS011;8562;52.246;20.966;2023-06-22T11:46:02;3.40;;;3.07;;
16890;SDS011;8562;52.246;20.966;2023-06-22T11:48:28;5.60;;;3.37;;
16890;SDS011;8562;52.246;20.966;2023-06-22T11:50:53;3.03;;;2.43;;
16890;SDS011;8562;52.246;20.966;2023-06-22T11:53:20;5.73;;;3.53;;
16890;SDS011;8562;52.246;20.966;2023-06-22T11:55:46;3.53;;;3.13;;
16890;SDS011;8562;52.246;20.966;2023-06-22T11:58:11;3.93;;;3.53;;
16890;SDS011;8562;52.246;20.966;2023-06-22T12:00:37;2.80;;;2.60;;
16890;SDS011;8562;52.246;20.966;2023-06-22T12:03:02;4.07;;;3.30;;
16890;SDS011;8562;52.246;20.966;2023-06-22T12:05:28;5.17;;;2.90;;
16890;SDS011;8562;52.246;20.966;2023-06-22T12:07:53;3.73;;;2.63;;
16890;SDS011;8562;52.246;20.966;2023-06-22T12:10:19;6.60;;;3.93;;
16890;SDS011;8562;52.246;20.966;2023-06-22T12:12:44;6.00;;;2.93;;
16890;SDS011;8562;52.246;20.966;2023-06-22T12:15:10;3.53;;;3.10;;
16890;SDS011;8562;52.246;20.966;2023-06-22T12:17:35;3.40;;;3.10;;
16890;SDS011;8562;52.246;20.966;2023-06-22T12:20:01;4.93;;;3.63;;
16890;SDS011;8562;52.246;20.966;2023-06-22T12:22:27;4.83;;;2.53;;
16890;SDS011;8562;52.246;20.966;2023-06-22T12:24:52;2.93;;;2.67;;
16890;SDS011;8562;52.246;20.966;2023-06-22T12:27:17;4.80;;;2.97;;
16890;SDS011;8562;52.246;20.966;2023-06-22T12:29:45;6.37;;;3.10;;
16890;SDS011;8562;52.246;20.966;2023-06-22T12:32:10;3.73;;;3.27;;
16890;SDS011;8562;52.246;20.966;2023-06-22T12:34:38;4.97;;;2.80;;
16890;SDS011;8562;52.246;20.966;2023-06-22T12:37:04;3.40;;;3.10;;
16890;SDS011;8562;52.246;20.966;2023-06-22T12:39:30;3.20;;;2.90;;
16890;SDS011;8562;52.246;20.966;2023-06-22T12:41:56;6.90;;;3.43;;
16890;SDS011;8562;52.246;20.966;2023-06-22T12:44:21;2.80;;;2.50;;
16890;SDS011;8562;52.246;20.966;2023-06-22T12:46:46;5.70;;;2.80;;
16890;SDS011;8562;52.246;20.966;2023-06-22T12:49:11;3.67;;;3.00;;
16890;SDS011;8562;52.246;20.966;2023-06-22T12:51:39;3.73;;;3.10;;
16890;SDS011;8562;52.246;20.966;2023-06-22T12:54:04;3.83;;;3.27;;
16890;SDS011;8562;52.246;20.966;2023-06-22T12:56:30;3.33;;;3.00;;
16890;SDS011;8562;52.246;20.966;2023-06-22T12:58:55;7.87;;;3.33;;
16890;SDS011;8562;52.246;20.966;2023-06-22T13:01:20;4.47;;;3.50;;
16890;SDS011;8562;52.246;20.966;2023-06-22T13:03:46;3.50;;;3.20;;
16890;SDS011;8562;52.246;20.966;2023-06-22T13:06:11;3.80;;;3.40;;
16890;SDS011;8562;52.246;20.966;2023-06-22T13:08:36;5.13;;;3.47;;
16890;SDS011;8562;52.246;20.966;2023-06-22T13:11:01;3.37;;;3.07;;
16890;SDS011;8562;52.246;20.966;2023-06-22T13:13:27;3.33;;;3.00;;
16890;SDS011;8562;52.246;20.966;2023-06-22T13:15:53;4.63;;;3.43;;
16890;SDS011;8562;52.246;20.966;2023-06-22T13:18:19;4.47;;;3.63;;
16890;SDS011;8562;52.246;20.966;2023-06-22T13:20:44;3.93;;;3.50;;
16890;SDS011;8562;52.246;20.966;2023-06-22T13:23:10;3.70;;;3.33;;
16890;SDS011;8562;52.246;20.966;2023-06-22T13:25:35;4.73;;;3.97;;
16890;SDS011;8562;52.246;20.966;2023-06-22T13:28:01;4.03;;;3.20;;
16890;SDS011;8562;52.246;20.966;2023-06-22T13:30:26;3.43;;;3.13;;
16890;SDS011;8562;52.246;20.966;2023-06-22T13:32:51;3.47;;;3.17;;
16890;SDS011;8562;52.246;20.966;2023-06-22T13:35:17;4.10;;;3.37;;
16890;SDS011;8562;52.246;20.966;2023-06-22T13:37:42;3.60;;;2.90;;
16890;SDS011;8562;52.246;20.966;2023-06-22T13:40:07;3.93;;;3.30;;
16890;SDS011;8562;52.246;20.966;2023-06-22T13:42:33;3.60;;;3.10;;
16890;SDS011;8562;52.246;20.966;2023-06-22T13:44:58;6.63;;;3.60;;
16890;SDS011;8562;52.246;20.966;2023-06-22T13:47:24;3.53;;;3.23;;
16890;SDS011;8562;52.246;20.966;2023-06-22T13:49:49;4.03;;;3.40;;
16890;SDS011;8562;52.246;20.966;2023-06-22T13:52:14;5.57;;;3.53;;
16890;SDS011;8562;52.246;20.966;2023-06-22T13:54:40;5.77;;;3.60;;
16890;SDS011;8562;52.246;20.966;2023-06-22T13:57:05;5.63;;;3.00;;
16890;SDS011;8562;52.246;20.966;2023-06-22T13:59:30;3.50;;;3.20;;
16890;SDS011;8562;52.246;20.966;2023-06-22T14:01:56;4.00;;;3.60;;
16890;SDS011;8562;52.246;20.966;2023-06-22T14:04:22;4.20;;;3.43;;
16890;SDS011;8562;52.246;20.966;2023-06-22T14:06:48;4.60;;;3.70;;
16890;SDS011;8562;52.246;20.966;2023-06-22T14:09:13;4.10;;;3.27;;
16890;SDS011;8562;52.246;20.966;2023-06-22T14:11:39;4.60;;;3.47;;
16890;SDS011;8562;52.246;20.966;2023-06-22T14:14:04;5.77;;;4.00;;
16890;SDS011;8562;52.246;20.966;2023-06-22T14:16:29;4.47;;;3.43;;
16890;SDS011;8562;52.246;20.966;2023-06-22T14:18:54;4.20;;;3.80;;
16890;SDS011;8562;52.246;20.966;2023-06-22T14:21:20;5.53;;;4.03;;
16890;SDS011;8562;52.246;20.966;2023-06-22T14:23:45;5.07;;;4.17;;
16890;SDS011;8562;52.246;20.966;2023-06-22T14:26:14;4.10;;;3.70;;